Time;durP1;ratioP1;P1;durP2;ratioP2;P2;SDS_P1;SDS_P2;PMS_P1;PMS_P2;Temp;Humidity;BMP_temperature;BMP_pressure;BME280_temperature;BME280_humidity;BME280_pressure;Samples;Min_cycle;Max_cycle;Signal;HPM_P1;HPM_P2
2024/01/18 00:02:03;;;;;;;18.43;13.43;;;;;;;-1.32;90.40;98376.91;4985227;28;20212;-80
2024/01/18 00:04:31;;;;;;;23.23;13.70;;;;;;;-1.34;90.65;98375.31;4985512;28;20212;-80
2024/01/18 00:06:57;;;;;;;24.50;14.70;;;;;;;-1.36;90.21;98390.19;4988402;28;20204;-81
2024/01/18 00:09:24;;;;;;;24.00;14.40;;;;;;;-1.36;90.07;98405.84;4989904;28;20223;-82
2024/01/18 00:11:50;;;;;;;23.53;13.90;;;;;;;-1.38;90.63;98403.31;4994258;28;20235;-82
2024/01/18 00:14:17;;;;;;;20.10;13.63;;;;;;;-1.38;90.41;98411.16;4991907;28;20258;-82
2024/01/18 00:16:43;;;;;;;24.63;14.23;;;;;;;-1.37;90.42;98410.25;4990560;28;20212;-82
2024/01/18 00:19:10;;;;;;;26.53;14.77;;;;;;;-1.35;90.56;98412.78;4987824;28;20220;-81
2024/01/18 00:21:38;;;;;;;24.73;13.10;;;;;;;-1.36;91.06;98404.09;4994697;28;20208;-81
2024/01/18 00:24:05;;;;;;;23.23;14.57;;;;;;;-1.36;90.59;98405.84;4993255;28;20655;-81
2024/01/18 00:26:32;;;;;;;26.07;14.13;;;;;;;-1.37;91.21;98401.56;4991220;28;20215;-82
2024/01/18 00:28:58;;;;;;;23.70;14.30;;;;;;;-1.41;90.99;98395.66;4989387;28;20219;-81
2024/01/18 00:31:25;;;;;;;24.73;14.20;;;;;;;-1.38;90.75;98407.69;4992677;28;20683;-81
2024/01/18 00:33:52;;;;;;;26.87;15.50;;;;;;;-1.41;90.11;98421.75;4991207;28;20231;-81
2024/01/18 00:36:19;;;;;;;24.20;14.37;;;;;;;-1.42;90.20;98417.44;4988708;28;20203;-81
2024/01/18 00:38:47;;;;;;;25.30;15.93;;;;;;;-1.41;90.27;98420.00;4996891;28;20227;-79
2024/01/18 00:41:13;;;;;;;26.40;16.13;;;;;;;-1.41;90.35;98425.22;4994342;28;20218;-81
2024/01/18 00:43:40;;;;;;;24.80;14.90;;;;;;;-1.40;90.43;98415.59;4990826;28;20203;-81
2024/01/18 00:46:06;;;;;;;26.67;14.77;;;;;;;-1.41;90.70;98414.75;4987244;28;20482;-81
2024/01/18 00:48:33;;;;;;;22.33;14.73;;;;;;;-1.42;90.37;98423.50;4987294;28;20238;-81
2024/01/18 00:50:59;;;;;;;26.07;16.03;;;;;;;-1.41;90.57;98430.44;4991427;28;20215;-81
2024/01/18 00:53:26;;;;;;;24.87;15.00;;;;;;;-1.41;90.36;98424.38;4999141;28;20294;-81
2024/01/18 00:55:53;;;;;;;33.80;17.10;;;;;;;-1.38;90.50;98425.97;4994857;28;20211;-81
2024/01/18 00:58:20;;;;;;;32.43;17.37;;;;;;;-1.38;90.25;98424.22;4992585;28;20223;-81
2024/01/18 01:00:47;;;;;;;31.93;15.97;;;;;;;-1.37;90.10;98440.72;4993013;28;20221;-81
2024/01/18 01:03:13;;;;;;;26.53;16.63;;;;;;;-1.35;90.04;98450.19;4990064;28;20444;-80
2024/01/18 01:05:40;;;;;;;25.47;15.50;;;;;;;-1.35;90.06;98450.19;4989101;28;20200;-81
2024/01/18 01:08:06;;;;;;;23.17;15.10;;;;;;;-1.34;90.13;98438.81;4995753;28;20223;-82
2024/01/18 01:10:33;;;;;;;22.63;15.13;;;;;;;-1.34;89.99;98445.78;4985660;28;20219;-82
2024/01/18 01:13:00;;;;;;;21.00;15.67;;;;;;;-1.34;89.88;98451.88;4994653;28;20242;-80
2024/01/18 01:15:27;;;;;;;29.93;16.10;;;;;;;-1.35;89.89;98455.41;4993058;28;20214;-81
2024/01/18 01:17:53;;;;;;;26.17;15.47;;;;;;;-1.33;90.00;98458.78;4991660;28;20211;-81
2024/01/18 01:20:20;;;;;;;26.87;15.53;;;;;;;-1.33;89.90;98461.38;4991245;28;20220;-81
2024/01/18 01:22:47;;;;;;;25.23;15.60;;;;;;;-1.32;90.09;98470.91;4989749;28;20231;-81
2024/01/18 01:25:12;;;;;;;24.33;15.13;;;;;;;-1.29;90.34;98472.53;4990085;28;20210;-81
2024/01/18 01:27:39;;;;;;;27.77;15.77;;;;;;;-1.28;90.16;98476.84;4984100;28;20203;-81
2024/01/18 01:30:10;;;;;;;26.33;15.00;;;;;;;-1.25;90.32;98484.50;4986546;28;20223;-80
2024/01/18 01:32:36;;;;;;;27.07;14.93;;;;;;;-1.23;90.39;98493.09;4984746;28;20211;-81
2024/01/18 01:35:03;;;;;;;25.43;15.73;;;;;;;-1.25;90.39;98498.41;4984503;28;20223;-81
2024/01/18 01:37:29;;;;;;;24.33;15.73;;;;;;;-1.25;90.61;98501.00;4995039;28;20203;-81
2024/01/18 01:39:56;;;;;;;23.80;15.20;;;;;;;-1.25;90.46;98500.16;4989264;28;20227;-80
2024/01/18 01:42:22;;;;;;;24.33;16.23;;;;;;;-1.26;90.57;98509.78;4988671;28;20227;-81
2024/01/18 01:44:49;;;;;;;30.87;16.67;;;;;;;-1.26;90.82;98520.25;4984771;28;20201;-81
2024/01/18 01:47:17;;;;;;;27.67;16.47;;;;;;;-1.27;90.99;98515.94;4992689;28;20212;-81
2024/01/18 01:49:44;;;;;;;24.87;15.83;;;;;;;-1.26;90.78;98511.56;4987208;28;20595;-80
2024/01/18 01:52:12;;;;;;;23.97;15.20;;;;;;;-1.26;91.00;98506.34;4985958;28;20211;-81
2024/01/18 01:54:39;;;;;;;26.07;16.23;;;;;;;-1.24;91.09;98512.28;4993114;28;20242;-81
2024/01/18 01:57:06;;;;;;;23.57;16.43;;;;;;;-1.25;91.05;98519.28;4989089;28;20212;-81
2024/01/18 01:59:33;;;;;;;30.47;17.00;;;;;;;-1.25;90.88;98534.09;4992159;28;20223;-81
2024/01/18 02:01:59;;;;;;;27.30;17.13;;;;;;;-1.25;91.09;98526.28;4992358;28;20203;-81
2024/01/18 02:04:28;;;;;;;28.60;16.57;;;;;;;-1.24;91.34;98525.34;4985136;28;20579;-81
2024/01/18 02:06:56;;;;;;;30.63;18.47;;;;;;;-1.23;90.90;98529.66;4984610;28;20203;-81
2024/01/18 02:09:23;;;;;;;39.53;19.83;;;;;;;-1.22;91.17;98531.34;4983118;28;20235;-81
2024/01/18 02:11:49;;;;;;;32.10;18.80;;;;;;;-1.23;90.75;98543.56;4989164;28;20569;-82
2024/01/18 02:14:16;;;;;;;31.90;16.83;;;;;;;-1.20;91.08;98547.78;4977541;28;20227;-80
2024/01/18 02:16:42;;;;;;;23.03;14.93;;;;;;;-1.19;90.72;98534.66;4989420;28;20202;-81
2024/01/18 02:19:09;;;;;;;24.20;16.20;;;;;;;-1.19;90.67;98537.28;4990713;28;20693;-81
2024/01/18 02:21:37;;;;;;;23.50;15.53;;;;;;;-1.19;91.18;98539.03;4995403;28;20576;-82
2024/01/18 02:24:11;;;;;;;25.90;15.70;;;;;;;-1.20;90.84;98546.03;4991813;28;20636;-81
2024/01/18 02:26:39;;;;;;;26.90;17.33;;;;;;;-1.19;90.87;98541.66;4988984;28;20211;-81
2024/01/18 02:29:06;;;;;;;26.23;17.13;;;;;;;-1.19;90.63;98546.88;4985179;28;20228;-81
2024/01/18 02:31:32;;;;;;;30.43;17.90;;;;;;;-1.21;90.74;98551.31;4990431;28;20219;-81
2024/01/18 02:33:59;;;;;;;36.47;19.77;;;;;;;-1.22;90.51;98552.25;4994129;28;20242;-80
2024/01/18 02:36:26;;;;;;;26.67;16.47;;;;;;;-1.22;90.33;98550.47;4993192;28;20233;-81
2024/01/18 02:38:52;;;;;;;28.87;16.63;;;;;;;-1.22;90.39;98563.53;4997038;28;20633;-81
2024/01/18 02:41:19;;;;;;;24.13;16.27;;;;;;;-1.22;90.18;98558.31;4995951;28;20204;-81
2024/01/18 02:43:47;;;;;;;28.53;17.07;;;;;;;-1.23;90.34;98558.38;4990063;28;20204;-81
2024/01/18 02:46:16;;;;;;;23.87;16.20;;;;;;;-1.24;90.02;98556.69;4984455;28;20212;-82
2024/01/18 02:48:43;;;;;;;22.97;16.37;;;;;;;-1.23;89.77;98568.84;4996120;28;20603;-81
2024/01/18 02:51:09;;;;;;;26.03;16.07;;;;;;;-1.24;89.78;98560.16;4996260;28;20208;-82
2024/01/18 02:53:36;;;;;;;29.83;17.00;;;;;;;-1.24;89.82;98560.16;4990397;28;20223;-81
2024/01/18 02:56:03;;;;;;;28.60;16.90;;;;;;;-1.24;90.05;98552.31;4991972;28;20210;-81
2024/01/18 02:58:29;;;;;;;22.37;15.33;;;;;;;-1.22;90.23;98544.41;4991408;28;20223;-81
2024/01/18 03:00:57;;;;;;;25.50;15.90;;;;;;;-1.22;90.35;98550.47;5001188;28;20203;-81
2024/01/18 03:03:23;;;;;;;25.30;15.50;;;;;;;-1.21;89.98;98554.78;4990377;28;20203;-81
2024/01/18 03:05:50;;;;;;;27.83;17.67;;;;;;;-1.22;89.99;98557.47;4990945;28;20698;-81
2024/01/18 03:08:17;;;;;;;24.10;16.57;;;;;;;-1.21;90.03;98560.00;4993361;28;20239;-82
2024/01/18 03:10:43;;;;;;;25.27;17.03;;;;;;;-1.21;90.35;98559.16;4987942;28;20207;-80
2024/01/18 03:13:10;;;;;;;26.20;15.93;;;;;;;-1.18;90.03;98562.47;4981355;28;20212;-80
2024/01/18 03:15:36;;;;;;;21.27;16.27;;;;;;;-1.18;89.82;98564.25;4986151;28;20684;-81
2024/01/18 03:18:04;;;;;;;20.67;15.07;;;;;;;-1.17;89.65;98563.31;4987451;28;20223;-80
2024/01/18 03:20:31;;;;;;;25.07;16.93;;;;;;;-1.17;89.62;98571.16;4984932;28;20707;-80
2024/01/18 03:22:57;;;;;;;23.63;15.97;;;;;;;-1.19;89.62;98563.38;4987835;28;20207;-81
2024/01/18 03:25:24;;;;;;;27.37;17.03;;;;;;;-1.19;89.36;98562.53;4991693;28;20211;-81
2024/01/18 03:27:50;;;;;;;29.70;16.53;;;;;;;-1.19;89.46;98565.16;4989364;28;20200;-81
2024/01/18 03:30:17;;;;;;;25.87;16.07;;;;;;;-1.21;89.09;98561.78;4991907;28;20215;-81
2024/01/18 03:32:43;;;;;;;25.10;16.97;;;;;;;-1.22;89.16;98560.06;4982184;28;20221;-80
2024/01/18 03:35:11;;;;;;;25.03;15.87;;;;;;;-1.21;88.50;98561.78;4989056;28;20234;-81
2024/01/18 03:37:38;;;;;;;25.60;15.97;;;;;;;-1.23;88.62;98563.59;4987469;28;20259;-81
2024/01/18 03:40:07;;;;;;;24.10;15.97;;;;;;;-1.26;88.58;98569.84;4993652;28;20322;-81
2024/01/18 03:42:34;;;;;;;21.07;15.03;;;;;;;-1.27;88.60;98568.16;4985783;28;20290;-80
2024/01/18 03:45:01;;;;;;;28.20;16.40;;;;;;;-1.26;88.67;98572.47;4992500;28;20203;-81
2024/01/18 03:47:27;;;;;;;24.37;15.23;;;;;;;-1.26;88.31;98571.63;4994820;28;20215;-82
2024/01/18 03:49:53;;;;;;;23.60;15.40;;;;;;;-1.26;88.05;98574.22;4992070;28;20703;-81
2024/01/18 03:52:21;;;;;;;21.03;14.97;;;;;;;-1.28;88.19;98576.06;4989299;28;20204;-81
2024/01/18 03:54:48;;;;;;;25.70;15.00;;;;;;;-1.27;88.14;98577.75;4982138;28;20594;-81
2024/01/18 03:57:15;;;;;;;23.73;14.37;;;;;;;-1.29;87.48;98566.53;4984490;28;20204;-81
2024/01/18 03:59:41;;;;;;;20.87;13.90;;;;;;;-1.31;87.97;98574.44;4986409;28;20577;-80
2024/01/18 04:02:07;;;;;;;23.87;15.10;;;;;;;-1.30;87.51;98577.91;4986156;28;20214;-81
2024/01/18 04:04:34;;;;;;;22.10;14.63;;;;;;;-1.30;86.99;98586.59;4987329;28;20207;-81
2024/01/18 04:07:00;;;;;;;26.57;15.03;;;;;;;-1.30;87.34;98577.91;4985277;28;20208;-81
2024/01/18 04:09:28;;;;;;;24.23;15.83;;;;;;;-1.33;87.10;98570.22;4991623;28;20230;-81
2024/01/18 04:11:55;;;;;;;23.70;14.70;;;;;;;-1.33;87.06;98583.25;4991031;28;20208;-81
2024/01/18 04:14:21;;;;;;;24.60;15.23;;;;;;;-1.32;87.18;98577.13;4982031;28;20233;-82
2024/01/18 04:16:48;;;;;;;26.57;14.67;;;;;;;-1.32;87.04;98590.19;4992891;28;20204;-80
2024/01/18 04:19:14;;;;;;;23.03;14.87;;;;;;;-1.32;87.20;98591.03;4989863;28;20278;-80
2024/01/18 04:21:41;;;;;;;27.20;15.60;;;;;;;-1.32;87.37;98592.78;4990179;28;20213;-81
2024/01/18 04:24:08;;;;;;;26.23;15.40;;;;;;;-1.30;87.05;98591.81;4992036;28;20201;-81
2024/01/18 04:26:35;;;;;;;23.67;16.50;;;;;;;-1.29;87.32;98592.66;4987897;28;20215;-81
2024/01/18 04:29:02;;;;;;;30.50;18.73;;;;;;;-1.30;87.47;98588.34;4988395;28;20228;-81
2024/01/18 04:31:28;;;;;;;26.27;16.93;;;;;;;-1.29;87.17;98595.25;4987172;28;20211;-79
2024/01/18 04:33:56;;;;;;;25.73;17.10;;;;;;;-1.31;87.37;98581.44;4991099;28;20236;-80
2024/01/18 04:36:23;;;;;;;27.03;17.13;;;;;;;-1.29;87.34;98587.44;4988192;28;20211;-81
2024/01/18 04:38:49;;;;;;;25.93;16.10;;;;;;;-1.31;87.16;98589.25;4988280;28;20235;-81
2024/01/18 04:41:16;;;;;;;23.40;16.10;;;;;;;-1.32;87.33;98595.41;4993267;28;20577;-81
2024/01/18 04:43:44;;;;;;;26.47;15.27;;;;;;;-1.34;87.70;98585.03;4979187;28;21164;-82
2024/01/18 04:46:11;;;;;;;26.80;15.30;;;;;;;-1.32;87.58;98592.78;4984510;28;20205;-80
2024/01/18 04:48:38;;;;;;;22.20;15.00;;;;;;;-1.33;87.40;98593.72;4984318;28;20246;-81
2024/01/18 04:51:05;;;;;;;24.07;15.80;;;;;;;-1.36;87.83;98591.25;4983267;28;20208;-82
2024/01/18 04:53:31;;;;;;;27.63;16.33;;;;;;;-1.35;87.95;98599.00;4991004;28;20391;-82
2024/01/18 04:55:58;;;;;;;24.20;15.33;;;;;;;-1.36;87.86;98601.69;4989839;28;20601;-82
2024/01/18 04:58:24;;;;;;;24.00;15.73;;;;;;;-1.36;88.49;98607.75;4991358;28;20822;-83
2024/01/18 05:00:52;;;;;;;26.43;15.40;;;;;;;-1.36;88.38;98604.31;4984622;28;20221;-82
2024/01/18 05:03:19;;;;;;;25.93;16.40;;;;;;;-1.37;88.66;98621.72;4984076;28;20204;-81
2024/01/18 05:05:45;;;;;;;22.27;15.43;;;;;;;-1.38;89.27;98621.78;4985028;28;20238;-82
2024/01/18 05:08:12;;;;;;;28.63;16.13;;;;;;;-1.39;89.06;98620.94;4989050;28;20692;-82
2024/01/18 05:10:38;;;;;;;28.83;16.80;;;;;;;-1.37;89.30;98620.88;4986662;28;20204;-81
2024/01/18 05:13:05;;;;;;;25.87;16.67;;;;;;;-1.40;89.28;98609.66;4994338;28;20577;-81
2024/01/18 05:15:31;;;;;;;28.90;17.03;;;;;;;-1.40;89.91;98614.03;4986423;28;20226;-82
2024/01/18 05:17:59;;;;;;;27.20;17.20;;;;;;;-1.39;89.76;98628.78;4990539;28;20639;-82
2024/01/18 05:20:26;;;;;;;22.43;16.07;;;;;;;-1.40;89.96;98625.31;4989084;28;20211;-82
2024/01/18 05:22:52;;;;;;;26.90;17.63;;;;;;;-1.38;90.09;98620.03;4993908;28;20909;-82
2024/01/18 05:25:19;;;;;;;28.93;16.83;;;;;;;-1.38;89.83;98624.41;4984194;28;20204;-81
2024/01/18 05:27:45;;;;;;;26.73;17.27;;;;;;;-1.38;90.27;98624.41;4991677;28;20694;-81
2024/01/18 05:30:13;;;;;;;29.93;17.37;;;;;;;-1.38;90.14;98627.88;4988721;28;20235;-81
2024/01/18 05:32:40;;;;;;;27.70;18.23;;;;;;;-1.37;90.61;98634.78;4984028;28;20208;-81
2024/01/18 05:35:08;;;;;;;47.97;22.00;;;;;;;-1.39;90.43;98644.44;4986676;28;20269;-82
2024/01/18 05:37:35;;;;;;;34.47;20.97;;;;;;;-1.39;90.14;98644.44;4982749;28;20212;-82
2024/01/18 05:40:01;;;;;;;34.50;20.27;;;;;;;-1.39;90.39;98644.44;4987389;28;20219;-81
2024/01/18 05:42:28;;;;;;;32.73;19.03;;;;;;;-1.39;90.42;98639.22;4982035;28;20207;-81
2024/01/18 05:44:54;;;;;;;29.93;18.17;;;;;;;-1.38;90.71;98638.31;4992895;28;20231;-82
2024/01/18 05:47:21;;;;;;;25.53;17.77;;;;;;;-1.36;90.48;98648.69;4990549;28;20215;-82
2024/01/18 05:49:48;;;;;;;30.93;19.23;;;;;;;-1.38;90.61;98647.91;4985400;28;20227;-82
2024/01/18 05:52:16;;;;;;;33.13;18.37;;;;;;;-1.38;90.65;98653.13;4984013;28;20626;-82
2024/01/18 05:54:42;;;;;;;29.03;18.80;;;;;;;-1.40;90.72;98648.81;4987895;28;20250;-81
2024/01/18 05:57:09;;;;;;;33.33;18.03;;;;;;;-1.40;90.86;98656.66;4982092;28;20745;-82
2024/01/18 05:59:35;;;;;;;36.27;18.73;;;;;;;-1.38;91.35;98653.13;4987679;28;20736;-82
2024/01/18 06:02:03;;;;;;;29.57;18.17;;;;;;;-1.40;91.02;98661.88;4983246;28;20232;-82
2024/01/18 06:04:30;;;;;;;37.10;17.93;;;;;;;-1.38;91.22;98669.66;4988734;28;20595;-81
2024/01/18 06:06:57;;;;;;;30.73;18.43;;;;;;;-1.38;90.96;98663.56;4985508;28;20207;-81
2024/01/18 06:09:25;;;;;;;30.90;18.47;;;;;;;-1.40;90.98;98655.81;4985494;28;20780;-82
2024/01/18 06:11:52;;;;;;;34.27;19.33;;;;;;;-1.42;91.14;98662.88;4992461;28;20576;-81
2024/01/18 06:14:18;;;;;;;36.47;18.50;;;;;;;-1.42;90.97;98679.38;4983128;28;20242;-82
2024/01/18 06:16:45;;;;;;;28.67;18.37;;;;;;;-1.43;91.07;98688.13;4988110;28;20291;-81
2024/01/18 06:19:11;;;;;;;31.57;19.07;;;;;;;-1.44;91.44;98693.44;4989557;28;20972;-80
2024/01/18 06:21:38;;;;;;;28.60;18.87;;;;;;;-1.45;91.43;98694.38;4991969;28;20215;-80
2024/01/18 06:24:05;;;;;;;30.33;19.60;;;;;;;-1.45;91.68;98704.81;4985001;28;20216;-80
2024/01/18 06:26:33;;;;;;;31.93;19.07;;;;;;;-1.46;91.66;98706.56;4986196;28;20668;-81
2024/01/18 06:28:59;;;;;;;32.07;18.77;;;;;;;-1.46;91.82;98701.34;4984998;28;20224;-80
2024/01/18 06:31:27;;;;;;;32.13;19.10;;;;;;;-1.46;92.09;98703.09;4989776;28;20208;-80
2024/01/18 06:33:53;;;;;;;31.60;18.73;;;;;;;-1.47;92.19;98697.03;4986013;28;20208;-80
2024/01/18 06:36:22;;;;;;;30.83;19.50;;;;;;;-1.48;92.50;98705.78;4991044;28;20234;-81
2024/01/18 06:38:49;;;;;;;32.33;20.10;;;;;;;-1.47;92.39;98712.72;4983086;28;20331;-81
2024/01/18 06:41:15;;;;;;;36.60;21.63;;;;;;;-1.48;92.46;98724.06;4991270;28;20212;-81
2024/01/18 06:43:43;;;;;;;32.27;20.33;;;;;;;-1.48;92.71;98731.91;4990399;28;20207;-81
2024/01/18 06:46:15;;;;;;;32.60;20.10;;;;;;;-1.50;92.84;98731.13;4985122;28;20230;-81
2024/01/18 06:48:42;;;;;;;33.80;19.57;;;;;;;-1.50;93.46;98727.66;4991869;28;20235;-81
2024/01/18 06:51:08;;;;;;;38.27;20.50;;;;;;;-1.50;93.13;98735.50;4989756;28;20211;-81
2024/01/18 06:53:35;;;;;;;34.07;21.20;;;;;;;-1.50;93.35;98743.31;4989422;28;20203;-81
2024/01/18 06:56:01;;;;;;;37.30;21.37;;;;;;;-1.50;93.08;98738.94;4983210;28;20239;-81
2024/01/18 06:58:28;;;;;;;35.47;21.40;;;;;;;-1.50;93.25;98748.53;4982480;28;20227;-81
2024/01/18 07:00:56;;;;;;;36.53;21.73;;;;;;;-1.52;93.45;98742.53;4982531;28;20215;-81
2024/01/18 07:03:22;;;;;;;35.80;20.80;;;;;;;-1.52;93.26;98750.38;4979414;28;20210;-81
2024/01/18 07:05:49;;;;;;;42.50;20.87;;;;;;;-1.54;93.54;98750.44;4986961;28;20218;-79
2024/01/18 07:08:15;;;;;;;31.43;19.40;;;;;;;-1.51;93.64;98757.28;4988358;28;20230;-81
2024/01/18 07:10:47;;;;;;;36.97;21.20;;;;;;;-1.53;93.47;98752.13;4986170;28;20215;-80
2024/01/18 07:13:14;;;;;;;35.47;20.23;;;;;;;-1.53;93.42;98765.19;4987365;28;20212;-80
2024/01/18 07:15:40;;;;;;;36.10;20.90;;;;;;;-1.53;93.87;98764.34;4983802;28;20224;-80
2024/01/18 07:18:08;;;;;;;38.60;21.50;;;;;;;-1.53;93.61;98759.97;4988644;28;20207;-81
2024/01/18 07:20:34;;;;;;;37.67;21.40;;;;;;;-1.53;93.62;98767.78;4992806;28;20216;-81
2024/01/18 07:23:01;;;;;;;31.60;21.20;;;;;;;-1.54;93.84;98766.09;4993124;28;20200;-80
2024/01/18 07:25:28;;;;;;;33.60;19.57;;;;;;;-1.53;93.69;98769.56;4987132;28;20215;-81
2024/01/18 07:27:54;;;;;;;28.77;19.67;;;;;;;-1.56;94.02;98780.97;4987548;28;20235;-80
2024/01/18 07:30:21;;;;;;;34.47;21.63;;;;;;;-1.57;93.90;98781.03;4987765;28;20208;-80
2024/01/18 07:32:48;;;;;;;34.97;20.63;;;;;;;-1.58;93.70;98779.34;4989411;28;20203;-81
2024/01/18 07:35:16;;;;;;;35.80;19.73;;;;;;;-1.59;93.85;98796.75;4988129;28;20235;-81
2024/01/18 07:37:43;;;;;;;33.70;19.83;;;;;;;-1.58;93.89;98802.84;4990761;28;20199;-81
2024/01/18 07:40:10;;;;;;;36.30;21.13;;;;;;;-1.60;94.13;98795.06;4987859;28;20274;-81
2024/01/18 07:42:36;;;;;;;33.87;20.53;;;;;;;-1.59;93.82;98791.53;4989376;28;20200;-81
2024/01/18 07:45:03;;;;;;;34.00;20.50;;;;;;;-1.61;94.03;98793.38;4988307;28;20204;-81
2024/01/18 07:47:29;;;;;;;36.97;20.23;;;;;;;-1.63;93.92;98789.16;4993839;28;20211;-80
2024/01/18 07:49:56;;;;;;;38.00;22.30;;;;;;;-1.63;93.59;98800.44;4990390;28;20234;-80
2024/01/18 07:52:24;;;;;;;43.90;22.73;;;;;;;-1.65;93.84;98806.66;4987125;28;20218;-81
2024/01/18 07:54:51;;;;;;;41.17;24.83;;;;;;;-1.68;93.63;98812.84;4992567;28;20232;-80
2024/01/18 07:57:18;;;;;;;41.83;23.90;;;;;;;-1.67;93.92;98818.91;4988541;28;20212;-81
2024/01/18 07:59:44;;;;;;;47.43;24.50;;;;;;;-1.70;93.64;98814.66;4987736;28;20232;-80
2024/01/18 08:02:11;;;;;;;37.73;22.80;;;;;;;-1.73;93.35;98833.06;4987488;28;20204;-80
2024/01/18 08:04:37;;;;;;;41.27;23.57;;;;;;;-1.72;93.59;98833.91;4994391;28;20219;-81
2024/01/18 08:07:04;;;;;;;43.33;23.57;;;;;;;-1.75;93.74;98827.06;4988844;28;20222;-80
2024/01/18 08:09:32;;;;;;;40.23;23.40;;;;;;;-1.76;93.33;98827.97;4995392;28;20231;-80
2024/01/18 08:11:58;;;;;;;38.20;21.70;;;;;;;-1.78;93.64;98840.22;4988384;28;20219;-81
2024/01/18 08:14:25;;;;;;;35.67;22.00;;;;;;;-1.81;93.85;98841.22;4980477;28;20218;-80
2024/01/18 08:16:51;;;;;;;37.73;23.33;;;;;;;-1.82;93.46;98846.50;4988770;28;20243;-81
2024/01/18 08:19:19;;;;;;;38.80;22.63;;;;;;;-1.85;93.40;98857.06;4985864;28;20235;-81
2024/01/18 08:21:45;;;;;;;36.90;21.07;;;;;;;-1.90;93.86;98854.63;4985725;28;20216;-80
2024/01/18 08:24:12;;;;;;;33.37;20.70;;;;;;;-1.90;94.03;98852.03;4980975;28;20212;-80
2024/01/18 08:26:45;;;;;;;31.37;19.33;;;;;;;-1.93;93.25;98849.53;4985790;28;20657;-80
2024/01/18 08:29:12;;;;;;;39.87;21.60;;;;;;;-1.98;93.43;98843.69;4987585;28;20259;-81
2024/01/18 08:31:39;;;;;;;36.43;21.83;;;;;;;-2.00;93.78;98852.50;4989053;28;20211;-81
2024/01/18 08:34:07;;;;;;;37.80;22.23;;;;;;;-2.02;93.77;98852.56;4986263;28;20668;-80
2024/01/18 08:36:36;;;;;;;42.83;22.43;;;;;;;-2.04;93.83;98854.38;4981346;28;20236;-80
2024/01/18 08:39:02;;;;;;;38.07;22.50;;;;;;;-2.04;94.19;98853.53;4991364;28;20254;-80
2024/01/18 08:41:29;;;;;;;40.23;22.63;;;;;;;-2.06;94.49;98866.63;4994352;28;20234;-81
2024/01/18 08:43:57;;;;;;;41.33;22.63;;;;;;;-2.06;94.73;98861.41;4986715;28;20204;-81
2024/01/18 08:46:23;;;;;;;44.93;24.90;;;;;;;-2.05;94.93;98867.47;4988219;28;20234;-80
2024/01/18 08:48:50;;;;;;;42.83;23.40;;;;;;;-2.05;94.90;98881.38;4989536;28;20696;-80
2024/01/18 08:51:16;;;;;;;37.80;22.90;;;;;;;-2.06;95.41;98882.28;4994225;28;20238;-80
2024/01/18 08:53:46;;;;;;;39.50;22.43;;;;;;;-2.05;95.43;98878.75;4982983;28;20207;-80
2024/01/18 08:56:13;;;;;;;39.53;21.53;;;;;;;-2.03;95.36;98874.31;4986336;28;20728;-81
2024/01/18 08:58:40;;;;;;;36.93;21.03;;;;;;;-2.03;95.93;98892.59;4988868;28;20235;-82
2024/01/18 09:01:08;;;;;;;38.27;22.20;;;;;;;-2.02;96.15;98899.50;4994666;28;20220;-81
2024/01/18 09:03:34;;;;;;;35.80;21.10;;;;;;;-2.02;96.49;98890.81;4986257;28;20294;-80
2024/01/18 09:06:01;;;;;;;34.30;21.27;;;;;;;-2.00;95.91;98889.00;4991130;28;20204;-81
2024/01/18 09:08:27;;;;;;;33.90;21.00;;;;;;;-1.99;96.55;98883.72;4986307;28;20234;-80
2024/01/18 09:10:55;;;;;;;37.47;21.00;;;;;;;-1.97;96.32;98883.66;4983345;28;20215;-79
2024/01/18 09:13:22;;;;;;;33.80;20.07;;;;;;;-1.98;97.10;98895.88;4983439;28;20212;-80
2024/01/18 09:15:50;;;;;;;35.47;22.10;;;;;;;-1.94;96.79;98896.56;4985021;28;20242;-80
2024/01/18 09:18:17;;;;;;;36.27;21.50;;;;;;;-1.89;97.02;98900.69;4982599;28;20642;-80
2024/01/18 09:20:45;;;;;;;38.33;22.27;;;;;;;-1.84;97.57;98906.59;4982029;28;20211;-80
2024/01/18 09:23:12;;;;;;;38.63;22.43;;;;;;;-1.78;97.89;98913.28;4986673;28;20208;-80
2024/01/18 09:25:38;;;;;;;43.03;23.37;;;;;;;-1.70;97.65;98911.22;4984351;28;20218;-79
2024/01/18 09:28:07;;;;;;;39.27;22.90;;;;;;;-1.65;97.32;98911.03;4987048;28;20638;-80
2024/01/18 09:30:34;;;;;;;37.83;20.07;;;;;;;-1.58;97.65;98921.16;4984370;28;20242;-80
2024/01/18 09:33:01;;;;;;;35.20;20.10;;;;;;;-1.52;97.59;98923.50;4985192;28;20583;-79
2024/01/18 09:35:29;;;;;;;37.67;21.03;;;;;;;-1.46;97.62;98928.50;4989306;28;20239;-80
2024/01/18 09:37:56;;;;;;;31.63;19.47;;;;;;;-1.38;97.82;98935.97;4982486;28;20583;-81
2024/01/18 09:40:22;;;;;;;35.50;20.50;;;;;;;-1.32;97.41;98942.72;4987241;28;20238;-81
2024/01/18 09:42:50;;;;;;;34.77;20.33;;;;;;;-1.25;97.25;98944.13;4986097;28;20207;-80
2024/01/18 09:45:22;;;;;;;33.60;20.83;;;;;;;-1.17;96.87;98953.34;4987589;28;20216;-81
2024/01/18 09:47:50;;;;;;;37.27;19.47;;;;;;;-1.11;96.72;98945.28;4987968;28;20302;-81
2024/01/18 09:50:20;;;;;;;28.07;18.47;;;;;;;-1.07;96.35;98945.97;4989478;28;20986;-80
2024/01/18 09:52:49;;;;;;;26.27;17.67;;;;;;;-1.00;96.06;98946.56;4979232;28;20200;-80
2024/01/18 09:55:16;;;;;;;32.77;19.20;;;;;;;-0.94;95.70;98947.16;4991373;28;20690;-81
2024/01/18 09:57:48;;;;;;;35.57;19.53;;;;;;;-0.84;95.43;98960.63;4987706;28;20206;-81
2024/01/18 10:00:16;;;;;;;35.70;20.17;;;;;;;-0.79;95.07;98954.31;4982851;28;20238;-80
2024/01/18 10:02:43;;;;;;;31.23;19.20;;;;;;;-0.76;95.04;98956.78;4983201;28;20200;-81
2024/01/18 10:05:12;;;;;;;29.17;17.87;;;;;;;-0.67;94.61;98963.34;4983904;28;20254;-81
2024/01/18 10:07:39;;;;;;;30.70;19.20;;;;;;;-0.62;94.16;98958.78;4985472;28;20207;-81
2024/01/18 10:10:12;;;;;;;28.30;18.13;;;;;;;-0.57;93.99;98966.41;4990159;28;20279;-81
2024/01/18 10:12:41;;;;;;;25.20;17.20;;;;;;;-0.51;93.74;98963.50;4987316;28;20209;-80
2024/01/18 10:15:07;;;;;;;26.40;16.33;;;;;;;-0.48;93.44;98961.63;4989091;28;20218;-81
2024/01/18 10:17:34;;;;;;;30.23;19.03;;;;;;;-0.42;93.38;98965.72;4982653;28;20232;-81
2024/01/18 10:20:01;;;;;;;26.27;17.27;;;;;;;-0.35;93.34;98970.59;4996574;28;20262;-80
2024/01/18 10:22:29;;;;;;;29.00;17.30;;;;;;;-0.30;93.02;98974.75;4987418;28;20203;-81
2024/01/18 10:24:56;;;;;;;27.47;17.87;;;;;;;-0.22;92.32;98975.28;4988539;28;20651;-80
2024/01/18 10:27:25;;;;;;;24.30;16.37;;;;;;;-0.21;92.39;98975.22;4992886;28;20596;-81
2024/01/18 10:29:52;;;;;;;25.50;17.67;;;;;;;-0.19;92.23;98977.75;4990716;28;20604;-81
2024/01/18 10:32:19;;;;;;;25.83;16.93;;;;;;;-0.16;92.41;98980.22;4990178;28;20215;-81
2024/01/18 10:34:46;;;;;;;29.00;16.13;;;;;;;-0.11;92.33;98986.94;4984832;28;20207;-81
2024/01/18 10:37:15;;;;;;;22.73;14.67;;;;;;;-0.08;92.51;98986.78;4989462;28;20231;-81
2024/01/18 10:39:43;;;;;;;21.73;13.77;;;;;;;-0.04;92.73;98984.88;4991396;28;20291;-81
2024/01/18 10:42:10;;;;;;;21.10;13.00;;;;;;;0.00;92.44;98995.13;4988612;28;20304;-80
2024/01/18 10:44:41;;;;;;;22.77;13.63;;;;;;;0.04;92.23;99006.28;4993859;28;20310;-81
2024/01/18 10:47:10;;;;;;;19.90;13.47;;;;;;;0.07;91.81;99011.41;4986139;28;20263;-81
2024/01/18 10:49:37;;;;;;;21.17;14.13;;;;;;;0.09;91.82;99009.56;4985432;28;20219;-81
2024/01/18 10:52:04;;;;;;;21.60;13.50;;;;;;;0.12;91.63;99019.88;4997652;28;20299;-81
2024/01/18 10:54:32;;;;;;;20.17;13.37;;;;;;;0.14;91.65;99017.19;4997540;28;20660;-81
2024/01/18 10:56:59;;;;;;;18.70;13.10;;;;;;;0.15;91.50;99013.66;4993070;28;20228;-81
2024/01/18 10:59:26;;;;;;;17.53;11.90;;;;;;;0.20;91.68;99011.66;4992381;28;20319;-81
2024/01/18 11:01:55;;;;;;;15.63;11.20;;;;;;;0.24;91.88;99014.06;4988522;28;20204;-81
2024/01/18 11:04:21;;;;;;;12.97;9.97;;;;;;;0.28;91.66;99015.63;4993324;28;20218;-81
2024/01/18 11:06:48;;;;;;;20.50;13.40;;;;;;;0.31;91.69;99014.63;4988933;28;20200;-81
2024/01/18 11:09:16;;;;;;;21.53;14.00;;;;;;;0.33;91.17;99026.75;4990176;28;20237;-80
2024/01/18 11:11:43;;;;;;;16.77;12.63;;;;;;;0.37;90.66;99030.03;4989412;28;20594;-81
2024/01/18 11:14:09;;;;;;;20.27;14.03;;;;;;;0.36;90.48;99027.50;4989071;28;20217;-81
2024/01/18 11:16:38;;;;;;;19.13;12.50;;;;;;;0.36;90.44;99030.13;4990716;28;20710;-81